KNYEAS Weather Reports


Display with metric or nautical units.
time (UTC)temp
F
wind
direction
speed
MPH
gust
MPH
rain 1hr
in
rain 24hr
in
rain mn
in
humidity
%
barometer
mb
20200407181924 55 351 11.0 0.0 0.00 0.00 0.00 35 1.1
20200407180923 55 323 7.0 0.0 0.00 0.00 0.00 36 1.1
20200407180021 54 336 4.0 0.0 0.00 0.00 0.00 37 1.1
20200407175024 54 263 5.0 0.0 0.00 0.00 0.00 38 1.1
20200407174122 54 332 6.0 0.0 0.00 0.00 0.00 37 1.1
20200407173222 56 339 6.0 0.0 0.00 0.00 0.00 37 1.1
20200407172223 56 346 3.0 0.0 0.00 0.00 0.00 38 1.1
20200407171321 55 352 5.0 0.0 0.00 0.00 0.00 38 1.1
20200407170420 54 304 4.0 0.0 0.00 0.00 0.00 39 1.1
20200407165421 53 295 4.0 0.0 0.00 0.00 0.00 40 1.1
20200407164422 53 309 4.0 0.0 0.00 0.00 0.00 39 1.1
20200407163520 52 288 8.0 0.0 0.00 0.00 0.00 41 1.1
20200407162522 52 321 5.0 0.0 0.00 0.00 0.00 40 1.1
20200407161621 52 338 5.0 0.0 0.00 0.00 0.00 41 1.1
20200407160624 51 328 4.0 0.0 0.00 0.00 0.00 43 1.1
20200407155722 51 317 5.0 0.0 0.00 0.00 0.00 42 1.1
20200407154723 51 258 1.0 0.0 0.00 0.00 0.00 43 1.1
20200407153723 51 334 5.0 0.0 0.00 0.00 0.00 43 1.1
20200407152822 51 335 6.0 0.0 0.00 0.00 0.00 44 1.1
20200407151831 51 269 12.0 0.0 0.00 0.00 0.00 44 1.1
20200407150822 51 345 4.0 0.0 0.00 0.00 0.00 44 1.1
20200407145921 50 327 7.0 0.0 0.00 0.00 0.00 46 1.1
20200407144923 49 344 5.0 0.0 0.00 0.00 0.00 47 1.1
20200407144023 49 357 5.0 0.0 0.00 0.00 0.00 47 1.1
20200407143123 48 329 6.0 0.0 0.00 0.00 0.00 48 1.1
20200407141321 48 259 3.0 0.0 0.00 0.00 0.00 50 1.1
20200407140322 47 301 4.0 0.0 0.00 0.00 0.00 50 1.1
20200407135322 47 311 4.0 0.0 0.00 0.00 0.00 51 1.1
20200407134423 46 274 7.0 0.0 0.00 0.00 0.00 51 1.1
20200407133422 46 295 5.0 0.0 0.00 0.00 0.00 53 1.1
20200407132522 46 306 6.0 0.0 0.00 0.00 0.00 54 1.1
20200407131523 45 318 4.0 0.0 0.00 0.00 0.00 55 1.1
20200407130621 45 321 8.0 0.0 0.00 0.00 0.00 59 1.1
20200407125721 44 329 2.0 0.0 0.00 0.00 0.00 61 1.1
20200407124722 44 300 3.0 0.0 0.00 0.00 0.00 62 1.1
20200407123822 44 293 3.0 0.0 0.00 0.00 0.00 66 1.1
20200407122921 43 304 4.0 0.0 0.00 0.00 0.00 70 1.1
20200407121924 42 315 0.0 0.0 0.00 0.00 0.00 73 1.1
20200407120932 40 90 0.0 0.0 0.00 0.00 0.00 76 1.1
20200407120022 39 135 0.0 0.0 0.00 0.00 0.00 79 1.1
20200407115122 37 135 0.0 0.0 0.00 0.00 0.00 83 1.1
20200407114125 35 135 0.0 0.0 0.00 0.00 0.00 88 1.1
20200407113221 32 135 0.0 0.0 0.00 0.00 0.00 90 1.1
20200407112221 31 135 0.0 0.0 0.00 0.00 0.00 89 1.1
20200407111220 30 135 0.0 0.0 0.00 0.00 0.00 89 1.1
20200407110224 30 135 0.0 0.0 0.00 0.00 0.00 88 1.1
20200407105223 30 135 0.0 0.0 0.00 0.00 0.00 89 1.1
20200407104222 30 135 1.0 0.0 0.00 0.00 0.00 87 1.1
20200407103221 31 135 0.0 0.0 0.00 0.00 0.00 86 1.1
20200407102321 31 217 0.0 0.0 0.00 0.00 0.00 85 1.1
20200407101323 32 225 0.0 0.0 0.00 0.00 0.00 84 1.1
20200407100322 32 225 0.0 0.0 0.00 0.00 0.00 83 1.1
20200407095321 34 225 0.0 0.0 0.00 0.00 0.00 80 1.1
20200407094322 35 225 0.0 0.0 0.00 0.00 0.00 77 1.1
20200407093421 36 225 0.0 0.0 0.00 0.00 0.00 76 1.1
20200407092424 37 225 1.0 0.0 0.00 0.00 0.00 75 1.1
20200407090523 39 292 0.0 0.0 0.00 0.00 0.00 72 1.1
20200407085621 39 295 1.0 0.0 0.00 0.00 0.00 71 1.1
20200407084624 39 292 1.0 0.0 0.00 0.00 0.00 70 1.1
20200407083723 40 311 1.0 0.0 0.00 0.00 0.00 70 1.1
20200407082723 40 336 4.0 0.0 0.00 0.00 0.00 68 1.1
20200407081822 39 342 2.0 0.0 0.00 0.00 0.00 67 1.1
20200407080920 39 319 1.0 0.0 0.00 0.00 0.00 66 1.1
20200407075924 40 287 0.0 0.0 0.00 0.00 0.00 65 1.1
20200407075058 40 315 5.0 0.0 0.00 0.00 0.00 62 1.1
20200407074120 41 320 3.0 0.0 0.00 0.00 0.00 61 1.1
20200407073221 41 301 6.0 0.0 0.00 0.00 0.00 59 1.1
20200407072223 41 308 3.0 0.0 0.00 0.00 0.00 58 1.1
20200407071222 41 329 4.0 0.0 0.00 0.00 0.00 56 1.1
20200407070322 41 327 4.0 0.0 0.00 0.00 0.00 55 1.1
20200407065322 41 289 4.0 0.0 0.00 0.00 0.00 54 1.1
20200407064420 41 284 3.0 0.0 0.00 0.00 0.00 53 1.1
20200407063423 41 297 3.0 0.0 0.00 0.00 0.00 52 1.1
20200407062423 41 304 2.0 0.0 0.00 0.00 0.00 50 1.1
20200407061422 42 313 8.0 0.0 0.00 0.00 0.00 48 1.1
20200407060420 42 333 5.0 0.0 0.00 0.00 0.00 48 1.1
20200407055439 42 312 3.0 0.0 0.00 0.00 0.00 46 1.1
20200407054421 42 292 1.0 0.0 0.00 0.00 0.00 46 1.1
20200407053422 42 338 1.0 0.0 0.00 0.00 0.00 45 1.1
20200407052420 42 290 3.0 0.0 0.00 0.00 0.00 43 1.1
20200407051422 42 311 5.0 0.0 0.00 0.00 0.00 44 1.1
20200407050421 42 317 1.0 0.0 0.00 0.00 0.00 44 1.1
20200407045522 41 274 4.0 0.0 0.00 0.00 0.00 44 1.1
20200407044522 41 281 3.0 0.0 0.00 0.00 0.00 45 1.1
20200407043523 41 300 3.0 0.0 0.00 0.00 0.00 46 1.1
20200407042622 40 277 3.0 0.0 0.00 0.00 0.00 47 1.1
20200407041623 40 274 2.0 0.0 0.00 0.00 0.00 49 1.1
20200407040721 39 270 3.0 0.0 0.00 0.00 0.00 50 1.1
20200407035730 39 270 3.0 0.0 0.00 0.00 0.00 50 1.1
20200407034826 40 273 2.0 0.0 0.00 0.00 0.00 49 1.1
20200407033927 40 270 5.0 0.0 0.00 0.00 0.00 48 1.1
20200407032929 40 282 4.0 0.0 0.00 0.00 0.00 47 1.1
20200407032028 40 294 2.0 0.0 0.00 0.00 0.00 47 1.1
20200407031029 40 270 3.0 0.0 0.00 0.00 0.00 46 1.1
20200407030029 40 279 3.0 0.0 0.00 0.00 0.00 47 1.1
20200407025126 40 281 2.0 0.0 0.00 0.00 0.00 49 1.1
20200407024127 39 272 2.0 0.0 0.00 0.00 0.00 51 1.1
20200407023227 38 274 3.0 0.0 0.00 0.00 0.00 54 1.1
20200407022228 38 274 1.0 0.0 0.00 0.00 0.00 55 1.1
20200407021327 37 271 2.0 0.0 0.00 0.00 0.00 58 1.1
20200407020328 38 292 0.0 0.0 0.00 0.00 0.00 56 1.1
20200407015427 38 284 2.0 0.0 0.00 0.00 0.00 54 1.1
20200407014428 39 292 1.0 0.0 0.00 0.00 0.00 50 1.1
20200407013430 39 289 2.0 0.0 0.00 0.00 0.00 47 1.1
20200407012429 40 280 2.0 0.0 0.00 0.00 0.00 44 1.1
20200407011427 41 299 2.0 0.0 0.00 0.00 0.00 42 1.1
20200407010429 41 274 3.0 0.0 0.00 0.00 0.00 41 1.1
20200407005427 41 278 3.0 0.0 0.00 0.00 0.00 42 1.1
20200407004526 42 270 2.0 0.0 0.00 0.00 0.00 40 1.1
20200407003530 43 286 2.0 0.0 0.00 0.00 0.00 38 1.1
20200407002627 43 270 3.0 0.0 0.00 0.00 0.00 36 1.1
20200407001727 44 291 2.0 0.0 0.00 0.00 0.00 35 1.1
20200407000826 44 276 3.0 0.0 0.00 0.00 0.00 34 1.1
20200406235827 45 279 3.0 0.0 0.00 0.00 0.00 31 1.1
20200406234926 46 295 2.0 0.0 0.00 0.00 0.00 31 1.1
20200406233928 46 333 2.0 0.0 0.00 0.00 0.00 29 1.1
20200406233028 47 323 5.0 0.0 0.00 0.00 0.00 28 1.1
20200406232126 47 330 2.0 0.0 0.00 0.00 0.00 29 1.1
20200406231129 48 315 2.0 0.0 0.00 0.00 0.00 27 1.1
20200406230228 49 309 4.0 0.0 0.00 0.00 0.00 26 1.1
20200406225326 50 317 4.0 0.0 0.00 0.00 0.00 26 1.1
20200406224328 50 305 6.0 0.0 0.00 0.00 0.00 25 1.1
20200406223342 50 344 2.0 0.0 0.00 0.00 0.00 24 1.1
20200406222429 51 287 8.0 0.0 0.00 0.00 0.00 24 1.1
20200406221527 52 309 6.0 0.0 0.00 0.00 0.00 24 1.1
20200406220528 53 333 5.0 0.0 0.00 0.00 0.00 24 1.1
20200406215527 53 348 5.0 0.0 0.00 0.00 0.00 24 1.1
20200406214528 53 326 4.0 0.0 0.00 0.00 0.00 22 1.1
20200406213528 52 308 5.0 0.0 0.00 0.00 0.00 23 1.1
20200406212529 53 283 8.0 0.0 0.00 0.00 0.00 23 1.1
20200406211627 53 287 3.0 0.0 0.00 0.00 0.00 23 1.1
20200406210628 54 349 7.0 0.0 0.00 0.00 0.00 22 1.1
20200406205628 53 339 7.0 0.0 0.00 0.00 0.00 20 1.1
20200406204627 54 269 10.0 0.0 0.00 0.00 0.00 22 1.1
20200406203629 54 351 10.0 0.0 0.00 0.00 0.00 23 1.1
20200406202736 54 317 6.0 0.0 0.00 0.00 0.00 23 1.1
20200406201729 53 268 5.0 0.0 0.00 0.00 0.00 23 1.1
20200406200827 54 267 3.0 0.0 0.00 0.00 0.00 24 1.1
20200406195827 53 306 6.0 0.0 0.00 0.00 0.00 26 1.1
20200406194828 54 273 5.0 0.0 0.00 0.00 0.00 25 1.1
20200406193829 54 326 6.0 0.0 0.00 0.00 0.00 24 1.1
20200406192927 53 314 5.0 0.0 0.00 0.00 0.00 26 1.1
20200406191928 54 295 5.0 0.0 0.00 0.00 0.00 27 1.1
20200406191027 54 328 3.0 0.0 0.00 0.00 0.00 28 1.1
20200406190126 53 277 3.0 0.0 0.00 0.00 0.00 28 1.1
20200406185127 53 341 6.0 0.0 0.00 0.00 0.00 26 1.1
20200406184228 53 301 4.0 0.0 0.00 0.00 0.00 26 1.1
20200406183229 53 286 3.0 0.0 0.00 0.00 0.00 30 1.1